Time;durP1;ratioP1;P1;durP2;ratioP2;P2;SDS_P1;SDS_P2;PMS_P1;PMS_P2;Temp;Humidity;BMP_temperature;BMP_pressure;BME280_temperature;BME280_humidity;BME280_pressure;Samples;Min_cycle;Max_cycle;Signal;HPM_P1;HPM_P2
2022/03/20 00:00:38;;;;;;;0.60;0.60;;;;;;;;;;4975112;28;20669;-78
2022/03/20 00:03:09;;;;;;;0.30;0.30;;;;;;;;;;4979985;28;20112;-77
2022/03/20 00:05:38;;;;;;;3.13;0.82;;;;;;;;;;4981600;28;20029;-83
2022/03/20 00:08:08;;;;;;;0.57;0.50;;;;;;;;;;4981114;28;20045;-79
2022/03/20 00:10:34;;;;;;;0.15;0.15;;;;;;;;;;4980257;28;20050;-84
2022/03/20 00:13:02;;;;;;;0.65;0.65;;;;;;;;;;4978894;28;20031;-79
2022/03/20 00:15:30;;;;;;;4.57;1.50;;;;;;;;;;4974760;28;20557;-81
2022/03/20 00:17:56;;;;;;;2.05;1.17;;;;;;;;;;4981150;28;20502;-83
2022/03/20 00:20:22;;;;;;;0.60;0.60;;;;;;;;;;4982026;28;20129;-77
2022/03/20 00:22:48;;;;;;;0.50;0.50;;;;;;;;;;4979421;28;20117;-74
2022/03/20 00:25:14;;;;;;;1.03;0.40;;;;;;;;;;4980106;28;20541;-81
2022/03/20 00:27:40;;;;;;;1.97;1.10;;;;;;;;;;4980239;28;20034;-79
2022/03/20 00:30:06;;;;;;;0.80;0.77;;;;;;;;;;4977843;28;20818;-79
2022/03/20 00:32:32;;;;;;;0.30;0.30;;;;;;;;;;4983434;28;20042;-79
2022/03/20 00:35:00;;;;;;;1.13;1.07;;;;;;;;;;4989289;28;20401;-81
2022/03/20 00:37:27;;;;;;;0.30;0.30;;;;;;;;;;4981495;28;20081;-82
2022/03/20 00:39:53;;;;;;;6.88;0.90;;;;;;;;;;4980781;28;20059;-81
2022/03/20 00:42:19;;;;;;;28.63;2.17;;;;;;;;;;4980879;28;20081;-82
2022/03/20 00:44:45;;;;;;;0.83;0.83;;;;;;;;;;4984596;28;20577;-82
2022/03/20 00:47:13;;;;;;;0.43;0.43;;;;;;;;;;4979482;28;20406;-81
2022/03/20 00:49:39;;;;;;;0.88;0.82;;;;;;;;;;4982719;28;20030;-81
2022/03/20 00:52:06;;;;;;;0.82;0.40;;;;;;;;;;4980734;28;20098;-80
2022/03/20 00:54:33;;;;;;;1.23;0.90;;;;;;;;;;4979619;28;20030;-80
2022/03/20 00:56:59;;;;;;;1.25;0.88;;;;;;;;;;4982297;28;20197;-80
2022/03/20 00:59:26;;;;;;;0.75;0.75;;;;;;;;;;4981512;28;20034;-80
2022/03/20 01:01:52;;;;;;;6.47;0.65;;;;;;;;;;4979460;28;20050;-80
2022/03/20 01:04:19;;;;;;;0.10;0.10;;;;;;;;;;4981299;28;20034;-80
2022/03/20 01:06:45;;;;;;;0.20;0.20;;;;;;;;;;4979494;28;20532;-78
2022/03/20 01:09:11;;;;;;;1.57;0.87;;;;;;;;;;4982054;28;20034;-77
2022/03/20 01:11:38;;;;;;;0.97;0.97;;;;;;;;;;4982686;28;20034;-78
2022/03/20 01:14:06;;;;;;;0.60;0.47;;;;;;;;;;4981509;28;20026;-78
2022/03/20 01:16:32;;;;;;;0.43;0.43;;;;;;;;;;4980087;28;20680;-78
2022/03/20 01:18:58;;;;;;;0.33;0.33;;;;;;;;;;4981612;28;20026;-78
2022/03/20 01:21:24;;;;;;;0.55;0.55;;;;;;;;;;4980031;28;20281;-79
2022/03/20 01:23:50;;;;;;;2.00;1.50;;;;;;;;;;4983372;28;20058;-77
2022/03/20 01:26:16;;;;;;;8.10;2.45;;;;;;;;;;4981703;28;20461;-78
2022/03/20 01:28:42;;;;;;;0.63;0.60;;;;;;;;;;4982239;28;20041;-78
2022/03/20 01:31:09;;;;;;;0.30;0.30;;;;;;;;;;4980866;28;20026;-78
2022/03/20 01:33:35;;;;;;;0.43;0.43;;;;;;;;;;4978164;28;20041;-77
2022/03/20 01:36:01;;;;;;;0.40;0.40;;;;;;;;;;4982054;28;20080;-78
2022/03/20 01:38:28;;;;;;;0.25;0.25;;;;;;;;;;4982485;28;20038;-78
2022/03/20 01:40:54;;;;;;;0.28;0.28;;;;;;;;;;4979226;28;20030;-77
2022/03/20 01:43:20;;;;;;;1.23;1.13;;;;;;;;;;4979537;28;20038;-76
2022/03/20 01:45:47;;;;;;;0.77;0.77;;;;;;;;;;4978352;28;20812;-76
2022/03/20 01:48:13;;;;;;;0.57;0.57;;;;;;;;;;4978505;28;20031;-76
2022/03/20 01:50:39;;;;;;;1.75;1.27;;;;;;;;;;4981260;28;20034;-77
2022/03/20 01:53:06;;;;;;;0.95;0.95;;;;;;;;;;4981568;28;20030;-76
2022/03/20 01:55:32;;;;;;;1.85;0.88;;;;;;;;;;4980621;28;20764;-77
2022/03/20 01:57:58;;;;;;;0.15;0.15;;;;;;;;;;4977921;28;20069;-77
2022/03/20 02:00:25;;;;;;;0.47;0.47;;;;;;;;;;4979625;28;20038;-78
2022/03/20 02:02:52;;;;;;;1.85;1.40;;;;;;;;;;4982404;28;20038;-78
2022/03/20 02:05:19;;;;;;;2.60;1.45;;;;;;;;;;4981928;28;20065;-78
2022/03/20 02:07:47;;;;;;;0.52;0.52;;;;;;;;;;4979318;28;20042;-78
2022/03/20 02:10:13;;;;;;;0.73;0.40;;;;;;;;;;4981855;28;20054;-77
2022/03/20 02:12:40;;;;;;;7.18;1.63;;;;;;;;;;4981834;28;21813;-78
2022/03/20 02:15:07;;;;;;;1.10;1.10;;;;;;;;;;4980392;28;20057;-77
2022/03/20 02:17:33;;;;;;;;;;;;;;;;;;4982982;28;20030;-77
2022/03/20 02:20:03;;;;;;;0.47;0.47;;;;;;;;;;4980465;28;19917;-77
2022/03/20 02:22:30;;;;;;;0.47;0.47;;;;;;;;;;4980672;28;20100;-77
2022/03/20 02:24:56;;;;;;;0.77;0.77;;;;;;;;;;4980115;28;20030;-77
2022/03/20 02:27:27;;;;;;;1.30;0.82;;;;;;;;;;4980433;28;20805;-78
2022/03/20 02:30:01;;;;;;;2.15;0.80;;;;;;;;;;4976703;28;20030;-77
2022/03/20 02:32:29;;;;;;;0.52;0.52;;;;;;;;;;4985442;28;20051;-77
2022/03/20 02:34:56;;;;;;;5.32;1.65;;;;;;;;;;4983261;28;20505;-78
2022/03/20 02:37:23;;;;;;;0.68;0.68;;;;;;;;;;4983399;28;20797;-78
2022/03/20 02:39:50;;;;;;;0.63;0.63;;;;;;;;;;4983518;28;20517;-78
2022/03/20 02:42:16;;;;;;;;;;;;;;;;;;4982472;28;20057;-77
2022/03/20 02:44:54;;;;;;;1.17;0.47;;;;;;;;;;4984317;28;19914;-77
2022/03/20 02:47:23;;;;;;;0.75;0.75;;;;;;;;;;4984922;28;20038;-78
2022/03/20 02:50:00;;;;;;;0.75;0.75;;;;;;;;;;4985385;28;20030;-79
2022/03/20 02:52:31;;;;;;;0.30;0.30;;;;;;;;;;4981840;28;20034;-80
2022/03/20 02:55:03;;;;;;;0.40;0.40;;;;;;;;;;4984904;28;20022;-80
2022/03/20 02:57:30;;;;;;;2.30;1.50;;;;;;;;;;4982939;28;20034;-80
2022/03/20 03:00:00;;;;;;;0.63;0.63;;;;;;;;;;4984357;28;20037;-81
2022/03/20 03:02:27;;;;;;;1.30;1.20;;;;;;;;;;4983227;28;20042;-82
2022/03/20 03:04:53;;;;;;;0.52;0.50;;;;;;;;;;4983244;28;20050;-80
2022/03/20 03:07:19;;;;;;;0.40;0.40;;;;;;;;;;4984489;28;20034;-80
2022/03/20 03:12:29;;;;;;;1.30;0.73;;;;;;;;;;4985663;28;20049;-78
2022/03/20 03:17:40;;;;;;;1.05;1.00;;;;;;;;;;4983614;28;20519;-80
2022/03/20 03:20:06;;;;;;;0.30;0.30;;;;;;;;;;4982725;28;20030;-79
2022/03/20 03:22:32;;;;;;;1.05;0.65;;;;;;;;;;4981770;28;20049;-79
2022/03/20 03:24:59;;;;;;;0.63;0.63;;;;;;;;;;4981163;28;20031;-78
2022/03/20 03:27:25;;;;;;;0.30;0.30;;;;;;;;;;4981595;28;20038;-78
2022/03/20 03:29:51;;;;;;;0.17;0.17;;;;;;;;;;4982483;28;20031;-78
2022/03/20 03:32:17;;;;;;;1.20;0.85;;;;;;;;;;4984098;28;20324;-78
2022/03/20 03:37:28;;;;;;;0.30;0.30;;;;;;;;;;4983245;28;20045;-78
2022/03/20 03:39:54;;;;;;;1.30;1.20;;;;;;;;;;4983624;28;20108;-80
2022/03/20 03:42:21;;;;;;;0.20;0.20;;;;;;;;;;4987908;28;20074;-80
2022/03/20 03:44:49;;;;;;;0.10;0.10;;;;;;;;;;4985700;28;20043;-81
2022/03/20 03:47:15;;;;;;;1.15;1.10;;;;;;;;;;4983899;28;20406;-80
2022/03/20 03:49:41;;;;;;;0.10;0.10;;;;;;;;;;4982016;28;20031;-80
2022/03/20 03:52:07;;;;;;;1.13;1.13;;;;;;;;;;4983642;28;20034;-80
2022/03/20 03:54:33;;;;;;;0.17;0.17;;;;;;;;;;4981456;28;20086;-81
2022/03/20 03:57:00;;;;;;;0.55;0.55;;;;;;;;;;4983803;28;20041;-80
2022/03/20 03:59:26;;;;;;;0.30;0.30;;;;;;;;;;4980695;28;20082;-81
2022/03/20 04:01:52;;;;;;;1.17;0.55;;;;;;;;;;4983353;28;20477;-78
2022/03/20 04:04:18;;;;;;;1.45;0.68;;;;;;;;;;4983700;28;20044;-77
2022/03/20 04:06:44;;;;;;;0.52;0.52;;;;;;;;;;4981791;28;20097;-79
2022/03/20 04:09:10;;;;;;;0.32;0.32;;;;;;;;;;4983055;28;20723;-79
2022/03/20 04:11:36;;;;;;;0.45;0.45;;;;;;;;;;4984484;28;20069;-79
2022/03/20 04:14:02;;;;;;;25.35;1.88;;;;;;;;;;4982212;28;20034;-80
2022/03/20 04:16:28;;;;;;;0.88;0.88;;;;;;;;;;4981913;28;20533;-79
2022/03/20 04:18:54;;;;;;;0.25;0.25;;;;;;;;;;4983083;28;20034;-79
2022/03/20 04:21:20;;;;;;;0.75;0.75;;;;;;;;;;4982692;28;20022;-78
2022/03/20 04:23:46;;;;;;;0.10;0.10;;;;;;;;;;4983589;28;20053;-77
2022/03/20 04:26:21;;;;;;;0.63;0.63;;;;;;;;;;4980491;28;20030;-78
2022/03/20 04:28:48;;;;;;;0.47;0.47;;;;;;;;;;4979746;28;20490;-79
2022/03/20 04:31:17;;;;;;;1.73;1.05;;;;;;;;;;4983547;28;20462;-78
2022/03/20 04:33:45;;;;;;;2.38;1.05;;;;;;;;;;4980862;28;20109;-78
2022/03/20 04:36:11;;;;;;;0.77;0.77;;;;;;;;;;4981796;28;20077;-78
2022/03/20 04:38:38;;;;;;;0.22;0.22;;;;;;;;;;4981326;28;20046;-79
2022/03/20 04:41:04;;;;;;;0.63;0.63;;;;;;;;;;4981517;28;20058;-78
2022/03/20 04:43:30;;;;;;;2.30;1.30;;;;;;;;;;4980575;28;20089;-78
2022/03/20 04:45:56;;;;;;;0.43;0.43;;;;;;;;;;4981162;28;20026;-78
2022/03/20 04:59:22;;;;;;;2.92;0.65;;;;;;;;;;4982512;28;20040;-78
2022/03/20 05:01:48;;;;;;;0.50;0.50;;;;;;;;;;4981595;28;20042;-78
2022/03/20 05:04:14;;;;;;;0.40;0.40;;;;;;;;;;4982046;28;20105;-80
2022/03/20 05:06:41;;;;;;;0.65;0.65;;;;;;;;;;4980839;28;20058;-81
2022/03/20 05:14:37;;;;;;;0.57;0.57;;;;;;;;;;4981604;28;20041;-80
2022/03/20 05:17:06;;;;;;;0.93;0.75;;;;;;;;;;4981583;28;20041;-82
2022/03/20 05:19:36;;;;;;;1.15;0.98;;;;;;;;;;4979612;28;20556;-81
2022/03/20 05:22:03;;;;;;;1.17;0.55;;;;;;;;;;4982450;28;20525;-81
2022/03/20 05:24:29;;;;;;;0.47;0.47;;;;;;;;;;4980776;28;20279;-80
2022/03/20 05:26:56;;;;;;;1.87;0.93;;;;;;;;;;4982951;28;20039;-79
2022/03/20 05:29:22;;;;;;;1.45;1.30;;;;;;;;;;4982305;28;20080;-78
2022/03/20 05:31:49;;;;;;;0.70;0.70;;;;;;;;;;4978835;28;20096;-78
2022/03/20 05:34:16;;;;;;;0.43;0.43;;;;;;;;;;4979150;28;20113;-79
2022/03/20 05:36:43;;;;;;;1.17;0.75;;;;;;;;;;4979647;28;20037;-78
2022/03/20 05:39:09;;;;;;;0.10;0.10;;;;;;;;;;4980572;28;20054;-79
2022/03/20 05:41:47;;;;;;;3.70;1.20;;;;;;;;;;4983785;28;20042;-78
2022/03/20 05:44:16;;;;;;;1.83;0.57;;;;;;;;;;4981076;28;20082;-79
2022/03/20 05:46:44;;;;;;;1.30;1.25;;;;;;;;;;4979712;28;20037;-79
2022/03/20 05:49:10;;;;;;;4.20;2.60;;;;;;;;;;4980574;28;20058;-79
2022/03/20 05:51:37;;;;;;;0.50;0.50;;;;;;;;;;4980691;28;20026;-79
2022/03/20 05:54:03;;;;;;;;;;;;;;;;;;4980666;28;20034;-79
2022/03/20 05:59:14;;;;;;;0.30;0.30;;;;;;;;;;4979661;28;20030;-80
2022/03/20 06:01:40;;;;;;;0.30;0.30;;;;;;;;;;4980680;28;20034;-79
2022/03/20 06:04:07;;;;;;;0.93;0.90;;;;;;;;;;4981665;28;20058;-78
2022/03/20 06:06:35;;;;;;;0.65;0.65;;;;;;;;;;4978130;28;20080;-79
2022/03/20 06:09:01;;;;;;;0.73;0.73;;;;;;;;;;4981316;28;20030;-79
2022/03/20 06:11:27;;;;;;;0.20;0.20;;;;;;;;;;4982492;28;20565;-80
2022/03/20 06:13:53;;;;;;;0.10;0.10;;;;;;;;;;4980306;28;20543;-80
2022/03/20 06:16:22;;;;;;;1.42;1.33;;;;;;;;;;4980342;28;20291;-81
2022/03/20 06:18:49;;;;;;;0.82;0.82;;;;;;;;;;4980450;28;20109;-81
2022/03/20 06:21:15;;;;;;;0.93;0.57;;;;;;;;;;4981007;28;20031;-80
2022/03/20 06:23:41;;;;;;;2.58;2.17;;;;;;;;;;4982055;28;20983;-79
2022/03/20 06:26:08;;;;;;;0.30;0.30;;;;;;;;;;4979660;28;20070;-80
2022/03/20 06:28:34;;;;;;;46.78;2.08;;;;;;;;;;4980270;28;20783;-82
2022/03/20 06:31:00;;;;;;;1.05;1.00;;;;;;;;;;4979362;28;20034;-81
2022/03/20 06:33:26;;;;;;;4.50;0.68;;;;;;;;;;4978289;28;20039;-83
2022/03/20 06:35:53;;;;;;;0.28;0.28;;;;;;;;;;4979008;28;20169;-81
2022/03/20 06:38:20;;;;;;;0.32;0.32;;;;;;;;;;4979150;28;20023;-82
2022/03/20 06:40:46;;;;;;;0.40;0.40;;;;;;;;;;4979313;28;20510;-81
2022/03/20 06:43:14;;;;;;;0.98;0.88;;;;;;;;;;4980197;28;20042;-77
2022/03/20 06:45:41;;;;;;;4.25;1.90;;;;;;;;;;4977633;28;20054;-76
2022/03/20 06:48:07;;;;;;;0.35;0.35;;;;;;;;;;4980697;28;20044;-77
2022/03/20 06:50:33;;;;;;;0.60;0.60;;;;;;;;;;4975689;28;20038;-77
2022/03/20 06:53:04;;;;;;;1.27;0.97;;;;;;;;;;4978743;28;20101;-76
2022/03/20 06:55:31;;;;;;;0.70;0.70;;;;;;;;;;4980946;28;20286;-77
2022/03/20 06:57:58;;;;;;;1.20;0.75;;;;;;;;;;4978378;28;20791;-77
2022/03/20 07:00:26;;;;;;;3.25;1.75;;;;;;;;;;4978995;28;20034;-76
2022/03/20 07:02:55;;;;;;;0.35;0.35;;;;;;;;;;4981472;28;20034;-76
2022/03/20 07:05:21;;;;;;;0.93;0.93;;;;;;;;;;4974197;28;20047;-76
2022/03/20 07:07:48;;;;;;;0.80;0.70;;;;;;;;;;4979147;28;20712;-86
2022/03/20 07:10:15;;;;;;;2.08;1.50;;;;;;;;;;4977951;28;20038;-84
2022/03/20 07:12:41;;;;;;;7.00;0.88;;;;;;;;;;4978367;28;20034;-86
2022/03/20 07:15:07;;;;;;;0.80;0.80;;;;;;;;;;4981079;28;20023;-86
2022/03/20 07:17:37;;;;;;;0.10;0.10;;;;;;;;;;4979461;28;20409;-86
2022/03/20 07:20:06;;;;;;;0.35;0.35;;;;;;;;;;4982726;28;20058;-86
2022/03/20 07:22:32;;;;;;;1.20;1.10;;;;;;;;;;4982614;28;20092;-84
2022/03/20 07:29:29;;;;;;;0.73;0.70;;;;;;;;;;4982991;28;20030;-87
2022/03/20 07:30:29;;;;;;;1.17;1.10;;;;;;;;;;4984784;28;20073;-86
2022/03/20 07:32:55;;;;;;;1.50;1.40;;;;;;;;;;4984610;28;20086;-89
2022/03/20 07:35:21;;;;;;;0.10;0.10;;;;;;;;;;4985881;28;20540;-88
2022/03/20 07:37:47;;;;;;;0.70;0.70;;;;;;;;;;4979878;28;20565;-89
2022/03/20 07:40:13;;;;;;;0.53;0.50;;;;;;;;;;4984491;28;20030;-84
2022/03/20 07:42:39;;;;;;;0.40;0.40;;;;;;;;;;4982362;28;20096;-88
2022/03/20 07:45:05;;;;;;;0.35;0.35;;;;;;;;;;4981425;28;20026;-83
2022/03/20 07:47:31;;;;;;;0.90;0.90;;;;;;;;;;4981583;28;20302;-80
2022/03/20 07:49:58;;;;;;;0.77;0.77;;;;;;;;;;4981542;28;20038;-86
2022/03/20 07:52:24;;;;;;;1.45;0.68;;;;;;;;;;4981806;28;20145;-87
2022/03/20 07:54:51;;;;;;;1.23;0.45;;;;;;;;;;4981133;28;20030;-85
2022/03/20 07:57:17;;;;;;;0.20;0.20;;;;;;;;;;4982020;28;20058;-87
2022/03/20 07:59:44;;;;;;;0.70;0.70;;;;;;;;;;4983523;28;20084;-89
2022/03/20 08:02:10;;;;;;;0.55;0.55;;;;;;;;;;4982147;28;20030;-88
2022/03/20 08:04:37;;;;;;;1.33;1.23;;;;;;;;;;4981665;28;20413;-88
2022/03/20 08:07:04;;;;;;;0.60;0.60;;;;;;;;;;4981947;28;20030;-79
2022/03/20 08:09:30;;;;;;;1.08;1.08;;;;;;;;;;4981503;28;21090;-79
2022/03/20 08:11:56;;;;;;;0.55;0.55;;;;;;;;;;4980660;28;20699;-80
2022/03/20 08:14:23;;;;;;;1.23;1.23;;;;;;;;;;4980769;28;20508;-79
2022/03/20 08:16:50;;;;;;;3.72;0.73;;;;;;;;;;4981118;28;20402;-79
2022/03/20 08:19:17;;;;;;;2.85;1.80;;;;;;;;;;4980372;28;20030;-80
2022/03/20 08:21:43;;;;;;;0.55;0.55;;;;;;;;;;4981370;28;20489;-82
2022/03/20 08:24:12;;;;;;;5.68;1.65;;;;;;;;;;4980195;28;20038;-82
2022/03/20 08:26:40;;;;;;;4.00;1.45;;;;;;;;;;4981479;28;20072;-80
2022/03/20 08:29:10;;;;;;;6.13;1.40;;;;;;;;;;4978344;28;20030;-80
2022/03/20 08:31:36;;;;;;;0.55;0.55;;;;;;;;;;4980603;28;20030;-81
2022/03/20 08:34:03;;;;;;;0.40;0.32;;;;;;;;;;4980513;28;20038;-79
2022/03/20 08:36:29;;;;;;;0.35;0.35;;;;;;;;;;4977535;28;20027;-82
2022/03/20 08:38:55;;;;;;;2.33;1.73;;;;;;;;;;4980505;28;20061;-80
2022/03/20 08:41:21;;;;;;;3.73;1.80;;;;;;;;;;4980801;28;20030;-83
2022/03/20 08:43:47;;;;;;;2.23;1.17;;;;;;;;;;4980973;28;20041;-79
2022/03/20 08:46:15;;;;;;;0.43;0.40;;;;;;;;;;4980610;28;20129;-82
2022/03/20 08:48:41;;;;;;;0.82;0.82;;;;;;;;;;4980963;28;20026;-82
2022/03/20 08:51:07;;;;;;;2.80;1.47;;;;;;;;;;4980130;28;20034;-80
2022/03/20 08:53:33;;;;;;;0.40;0.40;;;;;;;;;;4979332;28;20042;-82
2022/03/20 08:56:00;;;;;;;3.40;1.57;;;;;;;;;;4980219;28;20335;-86
2022/03/20 08:58:26;;;;;;;2.08;1.17;;;;;;;;;;4980999;28;20045;-78
2022/03/20 09:00:52;;;;;;;0.30;0.30;;;;;;;;;;4978568;28;20034;-86
2022/03/20 09:03:18;;;;;;;0.40;0.40;;;;;;;;;;4979414;28;20498;-85
2022/03/20 09:05:44;;;;;;;0.47;0.47;;;;;;;;;;4981052;28;20280;-85
2022/03/20 09:08:10;;;;;;;0.75;0.75;;;;;;;;;;4981107;28;20033;-85
2022/03/20 09:10:36;;;;;;;0.10;0.10;;;;;;;;;;4980677;28;20061;-81
2022/03/20 09:13:03;;;;;;;3.93;2.27;;;;;;;;;;4980299;28;20022;-82
2022/03/20 09:15:30;;;;;;;0.32;0.32;;;;;;;;;;4981753;28;20062;-82
2022/03/20 09:20:42;;;;;;;0.28;0.28;;;;;;;;;;4981082;28;20108;-83
2022/03/20 09:23:08;;;;;;;0.70;0.70;;;;;;;;;;4980845;28;20121;-82
2022/03/20 09:25:35;;;;;;;0.20;0.20;;;;;;;;;;4978512;28;20039;-80
2022/03/20 09:28:02;;;;;;;11.40;1.35;;;;;;;;;;4977011;28;20045;-88
2022/03/20 09:30:28;;;;;;;;;;;;;;;;;;4978806;28;20031;-83
2022/03/20 09:32:54;;;;;;;0.60;0.60;;;;;;;;;;4982587;28;19914;-84
2022/03/20 09:35:20;;;;;;;1.37;0.97;;;;;;;;;;4979987;28;20409;-84
2022/03/20 09:37:46;;;;;;;0.50;0.40;;;;;;;;;;4974624;28;20364;-83
2022/03/20 09:40:13;;;;;;;0.20;0.20;;;;;;;;;;4973465;28;20061;-84
2022/03/20 09:42:39;;;;;;;;;;;;;;;;;;4974382;28;20078;-84
2022/03/20 09:45:06;;;;;;;0.47;0.47;;;;;;;;;;4970791;28;20010;-81
2022/03/20 09:47:37;;;;;;;1.85;0.77;;;;;;;;;;4976018;28;20666;-84
2022/03/20 09:50:04;;;;;;;0.60;0.50;;;;;;;;;;4979144;28;20034;-81
2022/03/20 09:52:30;;;;;;;0.30;0.30;;;;;;;;;;4974527;28;20029;-82
2022/03/20 09:54:58;;;;;;;0.53;0.53;;;;;;;;;;4974310;28;20041;-81
2022/03/20 09:57:28;;;;;;;0.20;0.20;;;;;;;;;;4973792;28;20030;-82
2022/03/20 09:59:55;;;;;;;0.50;0.50;;;;;;;;;;4975663;28;20911;-81
2022/03/20 10:02:21;;;;;;;0.30;0.30;;;;;;;;;;4974690;28;20129;-81
2022/03/20 10:04:53;;;;;;;0.32;0.32;;;;;;;;;;4969612;28;20030;-83
2022/03/20 10:07:25;;;;;;;0.43;0.43;;;;;;;;;;4974728;28;20533;-81
2022/03/20 10:10:06;;;;;;;0.68;0.68;;;;;;;;;;4988748;28;20038;-80
2022/03/20 10:12:33;;;;;;;0.40;0.40;;;;;;;;;;4976658;28;20034;-83
2022/03/20 10:14:59;;;;;;;;;;;;;;;;;;4972069;28;20030;-81
2022/03/20 10:17:25;;;;;;;0.35;0.35;;;;;;;;;;4971392;28;19921;-86
2022/03/20 10:19:51;;;;;;;1.70;0.93;;;;;;;;;;4972313;28;20026;-86
2022/03/20 10:22:21;;;;;;;1.70;1.40;;;;;;;;;;4970065;28;20042;-84
2022/03/20 10:24:48;;;;;;;0.30;0.30;;;;;;;;;;4974251;28;20486;-83
2022/03/20 10:27:14;;;;;;;0.45;0.45;;;;;;;;;;4966545;28;20069;-83
2022/03/20 10:29:54;;;;;;;0.93;0.50;;;;;;;;;;4968865;28;20034;-86
2022/03/20 10:32:21;;;;;;;0.20;0.20;;;;;;;;;;4966205;28;20038;-86
2022/03/20 10:34:50;;;;;;;0.38;0.38;;;;;;;;;;4968584;28;20078;-83
2022/03/20 10:37:17;;;;;;;0.43;0.43;;;;;;;;;;4966957;28;20121;-85
2022/03/20 10:39:44;;;;;;;0.22;0.22;;;;;;;;;;4969025;28;20117;-85
2022/03/20 10:42:14;;;;;;;0.43;0.43;;;;;;;;;;4972316;28;20124;-82
2022/03/20 10:44:40;;;;;;;0.32;0.30;;;;;;;;;;4971355;28;20038;-85
2022/03/20 10:47:12;;;;;;;1.27;0.77;;;;;;;;;;4971784;28;20054;-82
2022/03/20 10:49:39;;;;;;;0.55;0.35;;;;;;;;;;4974587;28;20039;-85
2022/03/20 10:52:05;;;;;;;;;;;;;;;;;;4977037;28;20046;-83
2022/03/20 10:54:40;;;;;;;0.10;0.10;;;;;;;;;;4975634;28;19911;-84
2022/03/20 10:57:08;;;;;;;1.02;0.30;;;;;;;;;;4977516;28;20038;-84
2022/03/20 10:59:34;;;;;;;0.68;0.35;;;;;;;;;;4977470;28;20031;-84
2022/03/20 11:02:01;;;;;;;0.30;0.30;;;;;;;;;;4977611;28;20161;-83
2022/03/20 11:04:28;;;;;;;0.38;0.38;;;;;;;;;;4975166;28;20415;-84
2022/03/20 11:06:54;;;;;;;0.22;0.22;;;;;;;;;;4975466;28;20029;-79
2022/03/20 11:09:20;;;;;;;1.98;1.23;;;;;;;;;;4971005;28;20051;-81
2022/03/20 11:11:50;;;;;;;0.50;0.50;;;;;;;;;;4970161;28;20049;-81
2022/03/20 11:14:18;;;;;;;8.32;1.60;;;;;;;;;;4970957;28;20019;-80
2022/03/20 11:16:46;;;;;;;0.30;0.30;;;;;;;;;;4972109;28;21488;-78
2022/03/20 11:19:13;;;;;;;0.60;0.60;;;;;;;;;;4969507;28;20053;-77
2022/03/20 11:21:39;;;;;;;;;;;;;;;;;;4971527;28;20042;-80
2022/03/20 11:24:06;;;;;;;0.45;0.45;;;;;;;;;;4983427;28;19926;-80
2022/03/20 11:26:33;;;;;;;0.38;0.38;;;;;;;;;;4978510;28;20030;-81
2022/03/20 11:29:01;;;;;;;0.50;0.50;;;;;;;;;;4974126;28;20023;-81
2022/03/20 11:31:28;;;;;;;0.80;0.80;;;;;;;;;;4970034;28;20078;-81
2022/03/20 11:33:55;;;;;;;0.25;0.25;;;;;;;;;;4970149;28;20031;-83
2022/03/20 11:36:21;;;;;;;0.20;0.20;;;;;;;;;;4974853;28;20084;-81
2022/03/20 11:39:16;;;;;;;1.43;1.33;;;;;;;;;;4977932;28;20498;-80
2022/03/20 11:41:42;;;;;;;0.32;0.32;;;;;;;;;;4968095;28;20353;-81
2022/03/20 11:44:13;;;;;;;0.37;0.37;;;;;;;;;;4979839;28;20109;-82
2022/03/20 11:46:43;;;;;;;0.77;0.60;;;;;;;;;;4979521;28;20292;-82
2022/03/20 11:49:20;;;;;;;0.35;0.35;;;;;;;;;;4980838;28;20036;-83
2022/03/20 11:51:51;;;;;;;0.20;0.20;;;;;;;;;;4977175;28;20108;-82
2022/03/20 11:54:18;;;;;;;0.52;0.52;;;;;;;;;;4979683;28;20035;-82
2022/03/20 11:56:44;;;;;;;0.90;0.90;;;;;;;;;;4979171;28;20058;-81
2022/03/20 11:59:30;;;;;;;0.77;0.47;;;;;;;;;;4978600;28;20042;-83
2022/03/20 12:02:03;;;;;;;0.47;0.32;;;;;;;;;;4975979;28;20301;-82
2022/03/20 12:04:38;;;;;;;0.15;0.15;;;;;;;;;;4981798;28;20681;-82
2022/03/20 12:07:04;;;;;;;0.20;0.20;;;;;;;;;;4978969;28;20035;-82
2022/03/20 12:09:33;;;;;;;0.20;0.20;;;;;;;;;;4981565;28;20054;-82
2022/03/20 12:12:09;;;;;;;0.17;0.17;;;;;;;;;;4984314;28;20042;-81
2022/03/20 12:14:39;;;;;;;0.45;0.40;;;;;;;;;;4983031;28;20066;-81
2022/03/20 12:17:07;;;;;;;0.15;0.15;;;;;;;;;;4983427;28;20124;-81
2022/03/20 12:19:36;;;;;;;0.10;0.10;;;;;;;;;;4982315;28;20073;-82
2022/03/20 12:22:18;;;;;;;0.10;0.10;;;;;;;;;;4981295;28;20038;-82
2022/03/20 12:24:49;;;;;;;0.40;0.40;;;;;;;;;;4982211;28;20058;-82
2022/03/20 12:27:24;;;;;;;0.10;0.10;;;;;;;;;;4981822;28;20166;-81
2022/03/20 12:29:50;;;;;;;0.00;0.00;;;;;;;;;;4978069;28;20129;-81
2022/03/20 12:32:17;;;;;;;0.10;0.10;;;;;;;;;;4978247;28;20036;-80
2022/03/20 12:34:44;;;;;;;0.10;0.10;;;;;;;;;;4975240;28;20034;-80
2022/03/20 12:37:35;;;;;;;0.20;0.20;;;;;;;;;;4973738;28;20035;-80
2022/03/20 12:40:04;;;;;;;0.13;0.13;;;;;;;;;;4975114;28;20181;-80
2022/03/20 12:42:37;;;;;;;0.40;0.40;;;;;;;;;;4977176;28;20043;-80
2022/03/20 12:45:04;;;;;;;0.10;0.10;;;;;;;;;;4976217;28;20880;-79
2022/03/20 12:47:30;;;;;;;0.10;0.10;;;;;;;;;;4976662;28;20041;-80
2022/03/20 12:49:59;;;;;;;0.20;0.20;;;;;;;;;;4968347;28;20097;-80
2022/03/20 12:52:25;;;;;;;0.32;0.32;;;;;;;;;;4976387;28;20122;-79
2022/03/20 12:54:54;;;;;;;8.35;0.43;;;;;;;;;;4977714;28;20413;-79
2022/03/20 12:57:36;;;;;;;0.28;0.10;;;;;;;;;;4976542;28;20034;-79
2022/03/20 13:00:06;;;;;;;0.10;0.10;;;;;;;;;;4976055;28;20026;-79
2022/03/20 13:02:33;;;;;;;0.10;0.10;;;;;;;;;;4979585;28;20030;-79
2022/03/20 13:05:11;;;;;;;0.10;0.10;;;;;;;;;;4977573;28;20036;-79
2022/03/20 13:07:39;;;;;;;2.20;1.05;;;;;;;;;;4976378;28;20042;-79
2022/03/20 13:10:05;;;;;;;0.05;0.05;;;;;;;;;;4974671;28;20054;-79
2022/03/20 13:12:51;;;;;;;0.20;0.20;;;;;;;;;;4979297;28;20034;-79
2022/03/20 13:15:24;;;;;;;0.13;0.13;;;;;;;;;;4978399;28;20037;-78
2022/03/20 13:17:50;;;;;;;0.50;0.45;;;;;;;;;;4988876;28;20101;-84
2022/03/20 13:20:17;;;;;;;0.20;0.20;;;;;;;;;;4967846;28;20038;-83
2022/03/20 13:22:43;;;;;;;0.65;0.57;;;;;;;;;;4973854;28;20058;-84
2022/03/20 13:25:20;;;;;;;0.20;0.20;;;;;;;;;;4973294;28;20027;-83
2022/03/20 13:27:48;;;;;;;0.10;0.10;;;;;;;;;;4965973;28;20296;-84
2022/03/20 13:30:17;;;;;;;0.57;0.57;;;;;;;;;;4977824;28;20030;-85
2022/03/20 13:32:44;;;;;;;0.32;0.32;;;;;;;;;;4971791;28;20065;-87
2022/03/20 13:35:10;;;;;;;0.10;0.10;;;;;;;;;;4975191;28;20038;-86
2022/03/20 13:37:36;;;;;;;0.00;0.00;;;;;;;;;;4971909;28;20126;-86
2022/03/20 13:40:03;;;;;;;0.28;0.28;;;;;;;;;;4971577;28;20655;-85
2022/03/20 13:42:30;;;;;;;0.40;0.40;;;;;;;;;;4973364;28;24860;-87
2022/03/20 13:44:56;;;;;;;0.10;0.10;;;;;;;;;;4972632;28;20022;-86
2022/03/20 13:47:23;;;;;;;0.10;0.10;;;;;;;;;;4974001;28;20073;-86
2022/03/20 13:49:51;;;;;;;0.00;0.00;;;;;;;;;;4971159;28;20053;-86
2022/03/20 13:54:59;;;;;;;0.10;0.10;;;;;;;;;;4971603;28;20145;-85
2022/03/20 13:57:28;;;;;;;0.40;0.38;;;;;;;;;;4966794;28;20561;-85
2022/03/20 14:00:03;;;;;;;0.20;0.20;;;;;;;;;;4970297;28;20027;-85
2022/03/20 14:02:39;;;;;;;0.10;0.10;;;;;;;;;;4969423;28;20133;-85
2022/03/20 14:05:10;;;;;;;0.30;0.30;;;;;;;;;;4969548;28;20050;-83
2022/03/20 14:07:37;;;;;;;0.10;0.10;;;;;;;;;;4973675;28;20065;-85
2022/03/20 14:10:03;;;;;;;;;;;;;;;;;;4972804;28;20051;-85
2022/03/20 14:12:30;;;;;;;0.85;0.85;;;;;;;;;;4970730;28;19921;-87
2022/03/20 14:14:58;;;;;;;0.55;0.50;;;;;;;;;;4972614;28;20027;-85
2022/03/20 14:17:39;;;;;;;0.10;0.10;;;;;;;;;;4972341;28;20312;-85
2022/03/20 14:20:08;;;;;;;0.20;0.17;;;;;;;;;;4969474;28;20048;-86
2022/03/20 14:22:44;;;;;;;0.25;0.25;;;;;;;;;;4971682;28;20053;-86
2022/03/20 14:25:12;;;;;;;2.50;0.43;;;;;;;;;;4968846;28;20030;-83
2022/03/20 14:27:39;;;;;;;0.13;0.13;;;;;;;;;;4977412;28;20801;-87
2022/03/20 14:41:36;;;;;;;0.22;0.22;;;;;;;;;;4921275;29;20262;-85
2022/03/20 14:44:16;;;;;;;0.10;0.10;;;;;;;;;;4921451;29;20051;-85
2022/03/20 14:46:50;;;;;;;0.20;0.20;;;;;;;;;;4909481;29;20136;-83
2022/03/20 14:49:17;;;;;;;0.00;0.00;;;;;;;;;;4915532;29;20040;-86
2022/03/20 14:51:43;;;;;;;0.38;0.35;;;;;;;;;;4920502;29;20035;-84
2022/03/20 14:54:10;;;;;;;0.03;0.03;;;;;;;;;;4911326;29;20035;-84
2022/03/20 14:56:37;;;;;;;0.43;0.32;;;;;;;;;;4896558;29;20448;-84
2022/03/20 14:59:04;;;;;;;0.38;0.38;;;;;;;;;;4915186;29;20028;-87
2022/03/20 15:01:30;;;;;;;0.00;0.00;;;;;;;;;;4919572;29;20043;-86
2022/03/20 15:03:57;;;;;;;1.17;0.30;;;;;;;;;;4926673;29;20457;-87
2022/03/20 15:06:24;;;;;;;0.10;0.10;;;;;;;;;;4922425;29;20040;-87
2022/03/20 15:11:36;;;;;;;0.10;0.10;;;;;;;;;;4926065;29;20050;-87
2022/03/20 15:14:03;;;;;;;0.00;0.00;;;;;;;;;;4925853;28;20114;-87
2022/03/20 15:16:29;;;;;;;0.10;0.10;;;;;;;;;;4984628;28;20061;-88
2022/03/20 15:18:59;;;;;;;0.20;0.20;;;;;;;;;;4984991;28;20069;-85
2022/03/20 15:21:28;;;;;;;0.00;0.00;;;;;;;;;;4971730;28;20030;-84
2022/03/20 15:23:55;;;;;;;0.22;0.22;;;;;;;;;;4983443;28;20070;-84
2022/03/20 15:26:21;;;;;;;0.10;0.10;;;;;;;;;;4978236;28;20030;-85
2022/03/20 15:28:47;;;;;;;0.10;0.10;;;;;;;;;;4977228;28;20452;-85
2022/03/20 15:31:14;;;;;;;0.20;0.20;;;;;;;;;;4972389;28;20589;-85
2022/03/20 15:33:40;;;;;;;;;;;;;;;;;;4972643;28;20348;-85
2022/03/20 15:36:11;;;;;;;0.40;0.40;;;;;;;;;;4972465;28;19942;-84
2022/03/20 15:38:38;;;;;;;0.03;0.03;;;;;;;;;;4974671;28;20031;-85